DLH266 LATI-EDDN
Flight info
| Callsign | DLH266 |
|---|---|
| Flight time | 1h 39m |
| Altitude | 38000 |
| Route | INLOT DCT RETRA DCT GACMO DCT TEBLI DCT NEMAL DCT SIMBA DCT AKINI/N0433F300 Z109 UPALA UPALA1V |
| Aircraft | A320/M-SDE3FGHIRWY/LB1 |
Departure
| Time | 2026-05-04 17:19 |
|---|---|
| Airport | Tirana International Airport Mother Teresa (LATI) |
Arrival
| Time | 2026-05-04 18:58 |
|---|---|
| Airport | Nuremberg Airport (EDDN) |
| Time | Latitude | Longitude | Altitude | Speed | Heading |
|---|---|---|---|---|---|
| 2026-05-04 16:21 | 41.41988 | 19.71515 | 116 ft | 0 kts | 265° |
| 2026-05-04 17:11 | 41.41989 | 19.71524 | 115 ft | 2 kts | 265° |
| 2026-05-04 17:11 | 41.42001 | 19.71555 | 117 ft | 0 kts | 179° |
| 2026-05-04 17:15 | 41.41977 | 19.71555 | 118 ft | 9 kts | 179° |
| 2026-05-04 17:15 | 41.41783 | 19.71601 | 119 ft | 22 kts | 174° |
| 2026-05-04 17:16 | 41.41467 | 19.71643 | 122 ft | 24 kts | 174° |
| 2026-05-04 17:16 | 41.40919 | 19.71721 | 123 ft | 28 kts | 169° |
| 2026-05-04 17:17 | 41.40720 | 19.71764 | 126 ft | 29 kts | 173° |
| 2026-05-04 17:17 | 41.40300 | 19.71910 | 128 ft | 16 kts | 145° |
| 2026-05-04 17:18 | 41.40244 | 19.72018 | 128 ft | 14 kts | 96° |
| 2026-05-04 17:18 | 41.40299 | 19.72212 | 127 ft | 12 kts | 7° |
| 2026-05-04 17:19 | 41.41087 | 19.72110 | 126 ft | 121 kts | 354° |
| 2026-05-04 17:19 | 41.43100 | 19.71893 | 1113 ft | 147 kts | 356° |
| 2026-05-04 17:20 | 41.45218 | 19.71680 | 2323 ft | 165 kts | 355° |
| 2026-05-04 17:20 | 41.47749 | 19.71374 | 3212 ft | 199 kts | 354° |
| 2026-05-04 17:20 | 41.49200 | 19.71196 | 3559 ft | 220 kts | 355° |
| 2026-05-04 17:21 | 41.52549 | 19.70861 | 4455 ft | 262 kts | 356° |
| 2026-05-04 17:21 | 41.56178 | 19.69895 | 6358 ft | 272 kts | 340° |
| 2026-05-04 17:22 | 41.57923 | 19.68886 | 7304 ft | 275 kts | 337° |
| 2026-05-04 17:22 | 41.59661 | 19.67776 | 8261 ft | 278 kts | 336° |
| 2026-05-04 17:23 | 41.65030 | 19.64417 | 10580 ft | 304 kts | 338° |
| 2026-05-04 17:23 | 41.67031 | 19.63234 | 11005 ft | 322 kts | 339° |
| 2026-05-04 17:23 | 41.71210 | 19.60812 | 12589 ft | 330 kts | 339° |
| 2026-05-04 17:24 | 41.73327 | 19.59590 | 13430 ft | 332 kts | 339° |
| 2026-05-04 17:24 | 41.79760 | 19.55878 | 15633 ft | 341 kts | 339° |
| 2026-05-04 17:25 | 41.81947 | 19.54613 | 16342 ft | 343 kts | 339° |
| 2026-05-04 17:25 | 41.86364 | 19.52051 | 17843 ft | 348 kts | 338° |
| 2026-05-04 17:26 | 41.90851 | 19.49452 | 19105 ft | 354 kts | 338° |
| 2026-05-04 17:26 | 41.97719 | 19.45461 | 20774 ft | 364 kts | 338° |
| 2026-05-04 17:27 | 42.02498 | 19.42997 | 21810 ft | 371 kts | 342° |
| 2026-05-04 17:27 | 42.07391 | 19.40760 | 22906 ft | 376 kts | 342° |
| 2026-05-04 17:28 | 42.12376 | 19.38480 | 23925 ft | 381 kts | 342° |
| 2026-05-04 17:29 | 42.19938 | 19.34896 | 25214 ft | 388 kts | 341° |
| 2026-05-04 17:29 | 42.27196 | 19.29860 | 26464 ft | 396 kts | 329° |
| 2026-05-04 17:30 | 42.34269 | 19.23932 | 27720 ft | 401 kts | 329° |
| 2026-05-04 17:31 | 42.39009 | 19.19967 | 28543 ft | 405 kts | 329° |
| 2026-05-04 17:31 | 42.46263 | 19.13867 | 29637 ft | 412 kts | 329° |
| 2026-05-04 17:32 | 42.51154 | 19.09735 | 30302 ft | 416 kts | 329° |
| 2026-05-04 17:33 | 42.58586 | 19.03452 | 31187 ft | 422 kts | 328° |
| 2026-05-04 17:33 | 42.61081 | 19.01341 | 31474 ft | 423 kts | 328° |
| 2026-05-04 17:34 | 42.68541 | 18.95020 | 32670 ft | 420 kts | 328° |
| 2026-05-04 17:34 | 42.70985 | 18.92940 | 33051 ft | 419 kts | 328° |
| 2026-05-04 17:35 | 42.78370 | 18.86646 | 34234 ft | 416 kts | 328° |
| 2026-05-04 17:35 | 42.83267 | 18.82476 | 34882 ft | 415 kts | 328° |
| 2026-05-04 17:35 | 42.85714 | 18.80384 | 35171 ft | 415 kts | 328° |
| 2026-05-04 17:36 | 42.88159 | 18.78290 | 35436 ft | 415 kts | 328° |
| 2026-05-04 17:36 | 42.90603 | 18.76194 | 35706 ft | 415 kts | 328° |
| 2026-05-04 17:36 | 42.93043 | 18.74100 | 36028 ft | 414 kts | 328° |
| 2026-05-04 17:36 | 42.95475 | 18.72009 | 36319 ft | 413 kts | 328° |
| 2026-05-04 17:37 | 42.97875 | 18.69944 | 36609 ft | 413 kts | 328° |
| 2026-05-04 17:37 | 43.00305 | 18.67853 | 36861 ft | 413 kts | 328° |
| 2026-05-04 17:37 | 43.02733 | 18.65765 | 37120 ft | 413 kts | 328° |
| 2026-05-04 17:37 | 43.05164 | 18.63677 | 37373 ft | 412 kts | 328° |
| 2026-05-04 17:38 | 43.07589 | 18.61590 | 37620 ft | 412 kts | 327° |
| 2026-05-04 17:38 | 43.10018 | 18.59490 | 37844 ft | 413 kts | 327° |
| 2026-05-04 17:38 | 43.12444 | 18.57390 | 38051 ft | 413 kts | 327° |
| 2026-05-04 17:39 | 43.19729 | 18.51041 | 38111 ft | 413 kts | 327° |
| 2026-05-04 17:39 | 43.24569 | 18.46778 | 38111 ft | 413 kts | 327° |
| 2026-05-04 17:40 | 43.29406 | 18.42510 | 38105 ft | 413 kts | 327° |
| 2026-05-04 17:40 | 43.34244 | 18.38245 | 38114 ft | 413 kts | 327° |
| 2026-05-04 17:41 | 43.39083 | 18.33963 | 38108 ft | 414 kts | 327° |
| 2026-05-04 17:41 | 43.43891 | 18.29700 | 38110 ft | 414 kts | 327° |
| 2026-05-04 17:42 | 43.48731 | 18.25408 | 38113 ft | 414 kts | 327° |
| 2026-05-04 17:42 | 43.53571 | 18.21102 | 38111 ft | 414 kts | 327° |
| 2026-05-04 17:43 | 43.58419 | 18.16783 | 38107 ft | 415 kts | 327° |
| 2026-05-04 17:43 | 43.63268 | 18.12455 | 38080 ft | 415 kts | 327° |
| 2026-05-04 17:44 | 43.67300 | 18.08845 | 38084 ft | 415 kts | 327° |
| 2026-05-04 17:44 | 43.72144 | 18.04502 | 38077 ft | 415 kts | 327° |
| 2026-05-04 17:45 | 43.76991 | 18.00148 | 38083 ft | 415 kts | 327° |
| 2026-05-04 17:45 | 43.82628 | 17.95076 | 38078 ft | 416 kts | 326° |
| 2026-05-04 17:46 | 43.86690 | 17.91412 | 38079 ft | 416 kts | 327° |
| 2026-05-04 17:46 | 43.91536 | 17.87039 | 38068 ft | 416 kts | 326° |
| 2026-05-04 17:47 | 43.96352 | 17.82677 | 38078 ft | 416 kts | 326° |
| 2026-05-04 17:47 | 44.01204 | 17.78272 | 38069 ft | 416 kts | 326° |
| 2026-05-04 17:48 | 44.06059 | 17.73860 | 38070 ft | 417 kts | 326° |
| 2026-05-04 17:48 | 44.10913 | 17.69447 | 38074 ft | 417 kts | 326° |
| 2026-05-04 17:49 | 44.15774 | 17.65020 | 38070 ft | 418 kts | 326° |
| 2026-05-04 17:49 | 44.20633 | 17.60572 | 38086 ft | 418 kts | 326° |
| 2026-05-04 17:50 | 44.25497 | 17.56120 | 38069 ft | 419 kts | 326° |
| 2026-05-04 17:50 | 44.30362 | 17.51652 | 38067 ft | 419 kts | 326° |
| 2026-05-04 17:51 | 44.35238 | 17.47166 | 38066 ft | 419 kts | 326° |
| 2026-05-04 17:51 | 44.40104 | 17.42680 | 38062 ft | 419 kts | 326° |
| 2026-05-04 17:52 | 44.44941 | 17.38228 | 38065 ft | 419 kts | 326° |
| 2026-05-04 17:52 | 44.49811 | 17.33724 | 38062 ft | 419 kts | 326° |
| 2026-05-04 17:53 | 44.54686 | 17.29202 | 38053 ft | 420 kts | 326° |
| 2026-05-04 17:53 | 44.59557 | 17.24670 | 38052 ft | 420 kts | 326° |
| 2026-05-04 17:54 | 44.64431 | 17.20127 | 38041 ft | 420 kts | 325° |
| 2026-05-04 17:54 | 44.69303 | 17.15585 | 38047 ft | 420 kts | 325° |
| 2026-05-04 17:55 | 44.74178 | 17.11029 | 38037 ft | 420 kts | 325° |
| 2026-05-04 17:55 | 44.79050 | 17.06468 | 38039 ft | 421 kts | 325° |
| 2026-05-04 17:56 | 44.83896 | 17.01934 | 38035 ft | 421 kts | 325° |
| 2026-05-04 17:56 | 44.88768 | 16.97358 | 38033 ft | 421 kts | 325° |
| 2026-05-04 17:57 | 44.93646 | 16.92754 | 38036 ft | 421 kts | 325° |
| 2026-05-04 17:57 | 44.98520 | 16.88145 | 38034 ft | 422 kts | 325° |
| 2026-05-04 17:58 | 45.03394 | 16.83528 | 38025 ft | 422 kts | 325° |
| 2026-05-04 17:58 | 45.08272 | 16.78895 | 38026 ft | 423 kts | 325° |
| 2026-05-04 17:59 | 45.13161 | 16.74247 | 38041 ft | 423 kts | 325° |
| 2026-05-04 18:00 | 45.20460 | 16.67284 | 38034 ft | 423 kts | 323° |
| 2026-05-04 18:00 | 45.25186 | 16.62300 | 38036 ft | 423 kts | 321° |
| 2026-05-04 18:01 | 45.29791 | 16.57104 | 38038 ft | 423 kts | 320° |
| 2026-05-04 18:01 | 45.34402 | 16.51916 | 38035 ft | 423 kts | 321° |
| 2026-05-04 18:02 | 45.41370 | 16.44221 | 38033 ft | 423 kts | 321° |
| 2026-05-04 18:02 | 45.46024 | 16.39086 | 38032 ft | 423 kts | 321° |
| 2026-05-04 18:03 | 45.50671 | 16.33934 | 38025 ft | 423 kts | 321° |
| 2026-05-04 18:03 | 45.55285 | 16.28804 | 38026 ft | 423 kts | 321° |
| 2026-05-04 18:04 | 45.59924 | 16.23633 | 38020 ft | 423 kts | 321° |
| 2026-05-04 18:05 | 45.66873 | 16.15850 | 38012 ft | 423 kts | 320° |
| 2026-05-04 18:05 | 45.71513 | 16.10649 | 38009 ft | 423 kts | 320° |
| 2026-05-04 18:06 | 45.78463 | 16.02841 | 38005 ft | 423 kts | 320° |
| 2026-05-04 18:06 | 45.83097 | 15.97626 | 38006 ft | 423 kts | 320° |
| 2026-05-04 18:07 | 45.87733 | 15.92400 | 38019 ft | 423 kts | 320° |
| 2026-05-04 18:07 | 45.92332 | 15.87201 | 38019 ft | 424 kts | 320° |
| 2026-05-04 18:08 | 45.96963 | 15.81942 | 38024 ft | 424 kts | 320° |
| 2026-05-04 18:08 | 46.01595 | 15.76664 | 38026 ft | 425 kts | 320° |
| 2026-05-04 18:09 | 46.10867 | 15.66105 | 38035 ft | 425 kts | 320° |
| 2026-05-04 18:10 | 46.15499 | 15.60808 | 38033 ft | 425 kts | 320° |
| 2026-05-04 18:10 | 46.20136 | 15.55489 | 38028 ft | 425 kts | 320° |
| 2026-05-04 18:11 | 46.24739 | 15.50197 | 38026 ft | 425 kts | 320° |
| 2026-05-04 18:11 | 46.29371 | 15.44869 | 38025 ft | 425 kts | 320° |
| 2026-05-04 18:12 | 46.33998 | 15.39530 | 38024 ft | 426 kts | 320° |
| 2026-05-04 18:12 | 46.38625 | 15.34174 | 38041 ft | 425 kts | 319° |
| 2026-05-04 18:13 | 46.43243 | 15.28812 | 38037 ft | 424 kts | 319° |
| 2026-05-04 18:14 | 46.50126 | 15.20810 | 38029 ft | 424 kts | 320° |
| 2026-05-04 18:14 | 46.54736 | 15.15445 | 38030 ft | 424 kts | 320° |
| 2026-05-04 18:15 | 46.63942 | 15.04669 | 38027 ft | 425 kts | 319° |
| 2026-05-04 18:16 | 46.68544 | 14.99264 | 38023 ft | 426 kts | 319° |
| 2026-05-04 18:16 | 46.73159 | 14.93834 | 38021 ft | 426 kts | 319° |
| 2026-05-04 18:17 | 46.80075 | 14.85664 | 38014 ft | 426 kts | 319° |
| 2026-05-04 18:18 | 46.86991 | 14.77477 | 38020 ft | 426 kts | 319° |
| 2026-05-04 18:18 | 46.91602 | 14.72010 | 38016 ft | 426 kts | 319° |
| 2026-05-04 18:19 | 46.98472 | 14.63840 | 38012 ft | 426 kts | 319° |
| 2026-05-04 18:19 | 47.03077 | 14.58360 | 38008 ft | 426 kts | 319° |
| 2026-05-04 18:20 | 47.07678 | 14.52844 | 38016 ft | 427 kts | 319° |
| 2026-05-04 18:20 | 47.12280 | 14.47308 | 38010 ft | 428 kts | 319° |
| 2026-05-04 18:21 | 47.16884 | 14.41762 | 38000 ft | 428 kts | 319° |
| 2026-05-04 18:21 | 47.21498 | 14.36202 | 37996 ft | 429 kts | 319° |
| 2026-05-04 18:22 | 47.26112 | 14.30632 | 37995 ft | 429 kts | 319° |
| 2026-05-04 18:22 | 47.30724 | 14.25044 | 37994 ft | 429 kts | 319° |
| 2026-05-04 18:23 | 47.35320 | 14.19474 | 37990 ft | 429 kts | 319° |
| 2026-05-04 18:23 | 47.39935 | 14.13872 | 37987 ft | 429 kts | 318° |
| 2026-05-04 18:24 | 47.44538 | 14.08254 | 37968 ft | 429 kts | 318° |
| 2026-05-04 18:24 | 47.46837 | 14.05445 | 37644 ft | 428 kts | 318° |
| 2026-05-04 18:24 | 47.49133 | 14.02632 | 36914 ft | 429 kts | 318° |
| 2026-05-04 18:25 | 47.51439 | 13.99804 | 36128 ft | 432 kts | 318° |
| 2026-05-04 18:25 | 47.53760 | 13.96958 | 35324 ft | 435 kts | 318° |
| 2026-05-04 18:25 | 47.56096 | 13.94093 | 34498 ft | 438 kts | 318° |
| 2026-05-04 18:25 | 47.58453 | 13.91203 | 33652 ft | 442 kts | 318° |
| 2026-05-04 18:26 | 47.60797 | 13.88324 | 32713 ft | 445 kts | 318° |
| 2026-05-04 18:26 | 47.63189 | 13.85379 | 31786 ft | 448 kts | 318° |
| 2026-05-04 18:26 | 47.65596 | 13.82403 | 30866 ft | 451 kts | 318° |
| 2026-05-04 18:26 | 47.68007 | 13.79416 | 30225 ft | 452 kts | 318° |
| 2026-05-04 18:27 | 47.70426 | 13.76419 | 29997 ft | 454 kts | 318° |
| 2026-05-04 18:27 | 47.72857 | 13.73407 | 29898 ft | 455 kts | 318° |
| 2026-05-04 18:27 | 47.77735 | 13.67371 | 29923 ft | 457 kts | 318° |
| 2026-05-04 18:28 | 47.82619 | 13.61313 | 29934 ft | 457 kts | 318° |
| 2026-05-04 18:28 | 47.87498 | 13.55234 | 29912 ft | 457 kts | 318° |
| 2026-05-04 18:29 | 47.92325 | 13.49063 | 29910 ft | 455 kts | 313° |
| 2026-05-04 18:29 | 47.96710 | 13.42347 | 29906 ft | 455 kts | 312° |
| 2026-05-04 18:30 | 48.03331 | 13.32156 | 29908 ft | 455 kts | 312° |
| 2026-05-04 18:31 | 48.07734 | 13.25337 | 29900 ft | 456 kts | 312° |
| 2026-05-04 18:31 | 48.12152 | 13.18494 | 29915 ft | 457 kts | 312° |
| 2026-05-04 18:32 | 48.16577 | 13.11642 | 29905 ft | 457 kts | 312° |
| 2026-05-04 18:32 | 48.20990 | 13.04779 | 29917 ft | 460 kts | 312° |
| 2026-05-04 18:33 | 48.25428 | 12.97706 | 29903 ft | 476 kts | 310° |
| 2026-05-04 18:33 | 48.29841 | 12.90230 | 29914 ft | 479 kts | 309° |
| 2026-05-04 18:34 | 48.33497 | 12.83902 | 29905 ft | 479 kts | 309° |
| 2026-05-04 18:34 | 48.37860 | 12.76401 | 29916 ft | 479 kts | 309° |
| 2026-05-04 18:35 | 48.42271 | 12.68887 | 29902 ft | 478 kts | 309° |
| 2026-05-04 18:35 | 48.44471 | 12.65137 | 29717 ft | 476 kts | 309° |
| 2026-05-04 18:35 | 48.46652 | 12.61408 | 28542 ft | 475 kts | 309° |
| 2026-05-04 18:35 | 48.48841 | 12.57658 | 27222 ft | 478 kts | 309° |
| 2026-05-04 18:36 | 48.51040 | 12.53883 | 25904 ft | 481 kts | 309° |
| 2026-05-04 18:36 | 48.53255 | 12.50074 | 24609 ft | 484 kts | 309° |
| 2026-05-04 18:36 | 48.55475 | 12.46256 | 23578 ft | 481 kts | 309° |
| 2026-05-04 18:36 | 48.57666 | 12.42489 | 22606 ft | 474 kts | 309° |
| 2026-05-04 18:37 | 48.59823 | 12.38777 | 21657 ft | 468 kts | 309° |
| 2026-05-04 18:37 | 48.61958 | 12.35095 | 20736 ft | 463 kts | 309° |
| 2026-05-04 18:37 | 48.64064 | 12.31446 | 20185 ft | 453 kts | 309° |
| 2026-05-04 18:37 | 48.66086 | 12.27931 | 19967 ft | 434 kts | 308° |
| 2026-05-04 18:38 | 48.68029 | 12.24552 | 19920 ft | 413 kts | 309° |
| 2026-05-04 18:38 | 48.69885 | 12.21332 | 19932 ft | 403 kts | 309° |
| 2026-05-04 18:38 | 48.71699 | 12.18179 | 19926 ft | 400 kts | 308° |
| 2026-05-04 18:38 | 48.73522 | 12.14999 | 19927 ft | 399 kts | 308° |
| 2026-05-04 18:39 | 48.75337 | 12.11815 | 19928 ft | 399 kts | 308° |
| 2026-05-04 18:39 | 48.77106 | 12.08571 | 19939 ft | 399 kts | 306° |
| 2026-05-04 18:39 | 48.78827 | 12.05280 | 19937 ft | 398 kts | 306° |
| 2026-05-04 18:39 | 48.80522 | 12.01976 | 19697 ft | 394 kts | 305° |
| 2026-05-04 18:40 | 48.82193 | 11.98699 | 19107 ft | 391 kts | 305° |
| 2026-05-04 18:40 | 48.83861 | 11.95433 | 18808 ft | 391 kts | 305° |
| 2026-05-04 18:40 | 48.85537 | 11.92174 | 18565 ft | 391 kts | 306° |
| 2026-05-04 18:40 | 48.87216 | 11.88930 | 18341 ft | 390 kts | 306° |
| 2026-05-04 18:41 | 48.88893 | 11.85702 | 18094 ft | 388 kts | 305° |
| 2026-05-04 18:41 | 48.90541 | 11.82527 | 17830 ft | 387 kts | 305° |
| 2026-05-04 18:41 | 48.92223 | 11.79277 | 17562 ft | 386 kts | 305° |
| 2026-05-04 18:41 | 48.93857 | 11.76114 | 17301 ft | 384 kts | 305° |
| 2026-05-04 18:42 | 48.95501 | 11.72939 | 17043 ft | 377 kts | 305° |
| 2026-05-04 18:42 | 48.97099 | 11.69853 | 16777 ft | 366 kts | 305° |
| 2026-05-04 18:42 | 48.98656 | 11.66843 | 16510 ft | 359 kts | 305° |
| 2026-05-04 18:42 | 49.00190 | 11.63864 | 16261 ft | 356 kts | 305° |
| 2026-05-04 18:43 | 49.01712 | 11.60891 | 16006 ft | 355 kts | 305° |
| 2026-05-04 18:43 | 49.03225 | 11.57931 | 15762 ft | 354 kts | 304° |
| 2026-05-04 18:43 | 49.04733 | 11.54978 | 15406 ft | 350 kts | 304° |
| 2026-05-04 18:43 | 49.06209 | 11.52087 | 14961 ft | 349 kts | 305° |
| 2026-05-04 18:44 | 49.07700 | 11.49172 | 14474 ft | 348 kts | 305° |
| 2026-05-04 18:44 | 49.08708 | 11.47205 | 14165 ft | 347 kts | 305° |
| 2026-05-04 18:44 | 49.10667 | 11.43366 | 13553 ft | 346 kts | 304° |
| 2026-05-04 18:44 | 49.12136 | 11.40479 | 13076 ft | 344 kts | 304° |
| 2026-05-04 18:45 | 49.13598 | 11.37603 | 12621 ft | 341 kts | 304° |
| 2026-05-04 18:45 | 49.15046 | 11.34756 | 12172 ft | 338 kts | 304° |
| 2026-05-04 18:45 | 49.16487 | 11.31920 | 11724 ft | 336 kts | 304° |
| 2026-05-04 18:45 | 49.18022 | 11.29247 | 11274 ft | 336 kts | 316° |
| 2026-05-04 18:46 | 49.20026 | 11.27408 | 10838 ft | 339 kts | 337° |
| 2026-05-04 18:46 | 49.22344 | 11.26756 | 10413 ft | 340 kts | 359° |
| 2026-05-04 18:46 | 49.24655 | 11.27422 | 10102 ft | 336 kts | 21° |
| 2026-05-04 18:46 | 49.26592 | 11.29196 | 9978 ft | 313 kts | 42° |
| 2026-05-04 18:47 | 49.27944 | 11.31622 | 9847 ft | 289 kts | 61° |
| 2026-05-04 18:47 | 49.28718 | 11.34334 | 9590 ft | 271 kts | 74° |
| 2026-05-04 18:47 | 49.29308 | 11.37011 | 9132 ft | 266 kts | 74° |
| 2026-05-04 18:47 | 49.29895 | 11.39677 | 8644 ft | 262 kts | 73° |
| 2026-05-04 18:48 | 49.30472 | 11.42304 | 8134 ft | 258 kts | 73° |
| 2026-05-04 18:48 | 49.31037 | 11.44889 | 7654 ft | 254 kts | 73° |
| 2026-05-04 18:48 | 49.31594 | 11.47439 | 7156 ft | 250 kts | 73° |
| 2026-05-04 18:48 | 49.32143 | 11.49945 | 6675 ft | 246 kts | 73° |
| 2026-05-04 18:49 | 49.32687 | 11.52422 | 6213 ft | 244 kts | 73° |
| 2026-05-04 18:49 | 49.33233 | 11.54874 | 5942 ft | 241 kts | 70° |
| 2026-05-04 18:49 | 49.34043 | 11.57101 | 5645 ft | 241 kts | 49° |
| 2026-05-04 18:49 | 49.35411 | 11.58449 | 5497 ft | 229 kts | 15° |
| 2026-05-04 18:50 | 49.36934 | 11.58428 | 5364 ft | 215 kts | 340° |
| 2026-05-04 18:50 | 49.38125 | 11.57267 | 5179 ft | 201 kts | 319° |
| 2026-05-04 18:50 | 49.39121 | 11.55797 | 5012 ft | 198 kts | 315° |
| 2026-05-04 18:50 | 49.40088 | 11.54280 | 5014 ft | 199 kts | 315° |
| 2026-05-04 18:51 | 49.41052 | 11.52751 | 5014 ft | 199 kts | 314° |
| 2026-05-04 18:51 | 49.42015 | 11.51219 | 5011 ft | 199 kts | 314° |
| 2026-05-04 18:51 | 49.42978 | 11.49687 | 5010 ft | 199 kts | 314° |
| 2026-05-04 18:51 | 49.43925 | 11.48178 | 5014 ft | 192 kts | 314° |
| 2026-05-04 18:52 | 49.44843 | 11.46713 | 5009 ft | 189 kts | 314° |
| 2026-05-04 18:52 | 49.45740 | 11.45244 | 5004 ft | 188 kts | 308° |
| 2026-05-04 18:52 | 49.46292 | 11.43435 | 5003 ft | 189 kts | 282° |
| 2026-05-04 18:52 | 49.46500 | 11.41444 | 4983 ft | 189 kts | 278° |
| 2026-05-04 18:53 | 49.46702 | 11.39446 | 4815 ft | 189 kts | 279° |
| 2026-05-04 18:53 | 49.46901 | 11.37482 | 4590 ft | 188 kts | 279° |
| 2026-05-04 18:53 | 49.47101 | 11.35503 | 4339 ft | 187 kts | 279° |
| 2026-05-04 18:53 | 49.47300 | 11.33538 | 4095 ft | 183 kts | 279° |
| 2026-05-04 18:54 | 49.47492 | 11.31637 | 3858 ft | 177 kts | 279° |
| 2026-05-04 18:54 | 49.47678 | 11.29790 | 3626 ft | 173 kts | 280° |
| 2026-05-04 18:54 | 49.47860 | 11.27980 | 3406 ft | 169 kts | 280° |
| 2026-05-04 18:54 | 49.48037 | 11.26216 | 3204 ft | 162 kts | 280° |
| 2026-05-04 18:55 | 49.48204 | 11.24545 | 2987 ft | 154 kts | 281° |
| 2026-05-04 18:55 | 49.48516 | 11.21427 | 2591 ft | 142 kts | 282° |
| 2026-05-04 18:55 | 49.48664 | 11.19945 | 2414 ft | 139 kts | 282° |
| 2026-05-04 18:56 | 49.48810 | 11.18482 | 2225 ft | 138 kts | 282° |
| 2026-05-04 18:56 | 49.48956 | 11.17023 | 2051 ft | 137 kts | 282° |
| 2026-05-04 18:56 | 49.49099 | 11.15579 | 1865 ft | 136 kts | 282° |
| 2026-05-04 18:56 | 49.49242 | 11.14144 | 1686 ft | 135 kts | 281° |
| 2026-05-04 18:57 | 49.49383 | 11.12722 | 1499 ft | 134 kts | 281° |
| 2026-05-04 18:57 | 49.49523 | 11.11309 | 1323 ft | 133 kts | 280° |
| 2026-05-04 18:57 | 49.49663 | 11.09905 | 1147 ft | 132 kts | 281° |
| 2026-05-04 18:57 | 49.49799 | 11.08563 | 1038 ft | 118 kts | 278° |
| 2026-05-04 18:58 | 49.49902 | 11.07503 | 1023 ft | 81 kts | 278° |
| 2026-05-04 18:58 | 49.49963 | 11.06880 | 1022 ft | 52 kts | 279° |
| 2026-05-04 18:58 | 49.49987 | 11.06561 | 1022 ft | 16 kts | 260° |
| 2026-05-04 18:58 | 49.49902 | 11.06484 | 1022 ft | 14 kts | 166° |
| 2026-05-04 18:59 | 49.49862 | 11.06505 | 1021 ft | 0 kts | 159° |
| 2026-05-04 18:59 | 49.49858 | 11.06508 | 1021 ft | 0 kts | 159° |
| 2026-05-04 19:00 | 49.49856 | 11.06509 | 1021 ft | 1 kts | 159° |
| 2026-05-04 19:00 | 49.49835 | 11.06523 | 1021 ft | 8 kts | 154° |
| 2026-05-04 19:00 | 49.49797 | 11.06602 | 1020 ft | 9 kts | 105° |
| 2026-05-04 19:00 | 49.49786 | 11.06698 | 1020 ft | 9 kts | 99° |
| 2026-05-04 19:01 | 49.49777 | 11.06789 | 1020 ft | 8 kts | 98° |
| 2026-05-04 19:01 | 49.49769 | 11.06871 | 1020 ft | 7 kts | 99° |
| 2026-05-04 19:01 | 49.49762 | 11.06939 | 1020 ft | 6 kts | 99° |
| 2026-05-04 19:01 | 49.49753 | 11.07025 | 1021 ft | 14 kts | 98° |
| 2026-05-04 19:02 | 49.49742 | 11.07146 | 1022 ft | 11 kts | 98° |
| 2026-05-04 19:02 | 49.49706 | 11.07223 | 1023 ft | 8 kts | 158° |
| 2026-05-04 19:02 | 49.49661 | 11.07226 | 1020 ft | 5 kts | 171° |
| 2026-05-04 19:02 | 49.49637 | 11.07269 | 1025 ft | 10 kts | 108° |
| 2026-05-04 19:03 | 49.49621 | 11.07408 | 1025 ft | 13 kts | 98° |
| 2026-05-04 19:03 | 49.49610 | 11.07496 | 1022 ft | 7 kts | 115° |
| 2026-05-04 19:03 | 49.49545 | 11.07520 | 1024 ft | 0 kts | 188° |